Time;durP1;ratioP1;P1;durP2;ratioP2;P2;SDS_P1;SDS_P2;PMS_P1;PMS_P2;Temp;Humidity;BMP_temperature;BMP_pressure;BME280_temperature;BME280_humidity;BME280_pressure;Samples;Min_cycle;Max_cycle;Signal;HPM_P1;HPM_P2
2022/09/14 00:04:30;;;;;;;6.40;5.40;;;;;;;12.95;100.00;95886.50;10334271;28;20268;-73
2022/09/14 00:09:31;;;;;;;12.00;5.22;;;;;;;12.93;100.00;95883.25;10334031;28;20210;-73
2022/09/14 00:14:32;;;;;;;10.00;6.13;;;;;;;12.92;100.00;95892.16;10334123;28;20198;-73
2022/09/14 00:19:32;;;;;;;7.65;5.38;;;;;;;12.87;100.00;95887.47;10333602;28;20255;-73
2022/09/14 00:24:33;;;;;;;7.78;6.25;;;;;;;12.80;100.00;95874.28;10333624;28;20201;-73
2022/09/14 00:29:34;;;;;;;8.60;6.13;;;;;;;12.88;100.00;95872.50;10333787;28;20394;-73
2022/09/14 00:34:34;;;;;;;6.70;5.95;;;;;;;12.93;100.00;95868.28;10332911;28;20214;-73
2022/09/14 00:39:35;;;;;;;11.32;5.25;;;;;;;12.82;100.00;95853.06;10333288;28;20228;-73
2022/09/14 00:44:35;;;;;;;6.10;5.50;;;;;;;12.82;100.00;95851.25;10332092;28;20212;-73
2022/09/14 00:49:39;;;;;;;6.40;5.50;;;;;;;12.91;100.00;95861.59;10333045;28;20685;-73
2022/09/14 00:54:50;;;;;;;6.63;5.35;;;;;;;12.88;100.00;95856.72;10314780;28;20252;-73
2022/09/14 00:59:52;;;;;;;9.02;5.55;;;;;;;12.88;100.00;95846.22;10331028;28;20226;-72
2022/09/14 01:04:53;;;;;;;8.77;5.80;;;;;;;12.76;100.00;95848.56;10313977;28;20198;-72
2022/09/14 01:10:03;;;;;;;8.82;6.72;;;;;;;12.80;100.00;95855.88;10331486;28;20194;-73
2022/09/14 01:15:24;;;;;;;7.40;5.82;;;;;;;12.82;100.00;95848.59;10314705;28;20190;-73
2022/09/14 01:20:33;;;;;;;10.27;5.75;;;;;;;12.94;100.00;95851.53;10313668;28;20229;-73
2022/09/14 01:25:54;;;;;;;8.60;5.45;;;;;;;12.94;100.00;95837.56;10314102;28;20289;-73
2022/09/14 01:30:56;;;;;;;9.15;6.15;;;;;;;12.83;100.00;95828.38;10330875;28;20245;-74
2022/09/14 01:35:59;;;;;;;8.73;6.03;;;;;;;12.84;100.00;95819.50;10313087;28;20257;-73
2022/09/14 01:41:03;;;;;;;12.82;6.15;;;;;;;12.81;100.00;95818.06;10295591;28;20296;-73
2022/09/14 01:46:30;;;;;;;8.30;6.32;;;;;;;12.84;100.00;95827.38;10310686;28;20190;-74
2022/09/14 01:51:58;;;;;;;6.80;5.68;;;;;;;12.95;100.00;95826.03;10328367;28;20230;-74
2022/09/14 01:57:03;;;;;;;6.72;5.55;;;;;;;12.88;100.00;95822.53;10329550;28;20225;-74
2022/09/14 02:02:15;;;;;;;10.20;5.90;;;;;;;12.84;100.00;95812.41;10311733;28;20234;-74
2022/09/14 02:07:16;;;;;;;7.30;6.53;;;;;;;12.78;100.00;95804.50;10312496;28;20249;-73
2022/09/14 02:12:17;;;;;;;7.03;5.82;;;;;;;12.82;100.00;95803.94;10295334;28;20193;-73
2022/09/14 02:17:18;;;;;;;6.05;5.45;;;;;;;12.88;100.00;95806.78;10312170;28;20225;-73
2022/09/14 02:22:18;;;;;;;6.22;5.45;;;;;;;12.82;100.00;95798.66;10311569;28;20194;-73
2022/09/14 02:27:19;;;;;;;8.68;7.10;;;;;;;12.77;100.00;95792.34;10311825;28;20193;-73
2022/09/14 02:32:31;;;;;;;9.10;6.25;;;;;;;12.84;100.00;95786.13;10311228;28;20198;-73
2022/09/14 02:37:43;;;;;;;6.05;5.45;;;;;;;12.88;100.00;95783.94;10328490;28;20221;-73
2022/09/14 02:43:13;;;;;;;6.10;5.40;;;;;;;12.89;100.00;95784.75;10328222;28;20208;-73
2022/09/14 02:48:20;;;;;;;10.45;5.90;;;;;;;12.74;100.00;95783.06;10328399;28;20650;-72
2022/09/14 02:53:27;;;;;;;13.15;6.57;;;;;;;12.67;100.00;95787.47;10327822;28;20647;-73
2022/09/14 02:58:38;;;;;;;7.22;6.18;;;;;;;12.92;100.00;95793.06;10310332;28;20234;-73
2022/09/14 03:03:39;;;;;;;8.80;5.30;;;;;;;12.96;100.00;95793.50;10339040;28;20200;-73
2022/09/14 03:08:40;;;;;;;6.63;5.93;;;;;;;12.95;100.00;95794.50;10361869;28;20614;-73
2022/09/14 03:13:40;;;;;;;11.68;6.28;;;;;;;13.08;100.00;95786.69;10359062;28;20192;-73
2022/09/14 03:18:41;;;;;;;6.00;5.40;;;;;;;13.14;100.00;95783.28;10360793;28;20221;-73
2022/09/14 03:23:43;;;;;;;7.18;5.75;;;;;;;13.26;100.00;95786.16;10359825;28;20194;-73
2022/09/14 03:28:44;;;;;;;6.38;5.22;;;;;;;13.37;100.00;95780.34;10361383;28;20177;-74
2022/09/14 03:33:44;;;;;;;8.85;5.10;;;;;;;13.39;100.00;95772.25;10360452;28;20189;-73
2022/09/14 03:38:46;;;;;;;9.23;5.80;;;;;;;13.34;100.00;95772.06;10360262;28;20236;-74
2022/09/14 03:43:47;;;;;;;7.72;5.82;;;;;;;13.38;100.00;95762.75;10359232;28;20224;-73
2022/09/14 03:48:48;;;;;;;5.85;5.13;;;;;;;13.40;100.00;95746.75;10360535;28;20185;-73
2022/09/14 03:53:48;;;;;;;9.00;6.00;;;;;;;13.42;100.00;95750.81;10360169;28;20195;-73
2022/09/14 03:58:49;;;;;;;6.13;5.38;;;;;;;13.56;100.00;95735.88;10359745;28;20712;-73
2022/09/14 04:03:50;;;;;;;6.93;4.88;;;;;;;13.57;100.00;95724.34;10364322;28;20584;-73
2022/09/14 04:08:50;;;;;;;7.15;5.90;;;;;;;13.61;100.00;95719.50;10366982;28;20627;-73
2022/09/14 04:13:51;;;;;;;6.45;5.85;;;;;;;13.65;100.00;95718.88;10366338;28;20213;-74
2022/09/14 04:18:52;;;;;;;6.95;5.88;;;;;;;13.60;100.00;95718.69;10367393;28;20217;-73
2022/09/14 04:23:56;;;;;;;9.60;5.65;;;;;;;13.57;100.00;95711.19;10366231;28;20236;-73
2022/09/14 04:28:56;;;;;;;10.10;5.78;;;;;;;13.45;100.00;95697.81;10374859;28;20181;-74
2022/09/14 04:33:57;;;;;;;7.22;6.45;;;;;;;13.44;100.00;95706.69;10373965;28;20189;-73
2022/09/14 04:38:59;;;;;;;11.98;6.30;;;;;;;13.38;100.00;95710.97;10374127;28;20251;-73
2022/09/14 04:43:59;;;;;;;9.48;6.25;;;;;;;13.56;100.00;95707.72;10373610;28;20284;-73
2022/09/14 04:49:00;;;;;;;6.47;5.57;;;;;;;13.68;100.00;95702.69;10373464;28;20212;-73
2022/09/14 04:54:02;;;;;;;5.68;5.18;;;;;;;13.81;100.00;95691.34;10373165;28;20201;-73
2022/09/14 04:59:04;;;;;;;8.68;5.32;;;;;;;13.79;100.00;95696.03;10372846;28;20602;-74
2022/09/14 05:04:06;;;;;;;7.50;5.80;;;;;;;13.61;100.00;95703.69;10372877;28;20255;-73
2022/09/14 05:09:11;;;;;;;7.40;5.40;;;;;;;13.63;100.00;95699.03;10372665;28;20185;-73
2022/09/14 05:14:12;;;;;;;6.60;5.90;;;;;;;13.56;100.00;95689.31;10371735;28;20189;-74
2022/09/14 05:19:15;;;;;;;6.50;5.72;;;;;;;13.56;100.00;95699.03;10372594;28;20630;-74
2022/09/14 05:24:17;;;;;;;6.85;5.50;;;;;;;13.83;100.00;95696.44;10354176;28;20284;-73
2022/09/14 05:29:18;;;;;;;8.20;6.13;;;;;;;13.83;100.00;95697.25;10354721;28;20181;-73
2022/09/14 05:34:18;;;;;;;7.60;5.97;;;;;;;13.91;100.00;95694.41;10353815;28;20224;-73
2022/09/14 05:39:18;;;;;;;11.18;5.72;;;;;;;13.90;100.00;95690.16;10370495;28;20291;-73
2022/09/14 05:44:19;;;;;;;6.97;5.90;;;;;;;13.87;100.00;95687.94;10371023;28;20276;-73
2022/09/14 05:49:19;;;;;;;6.13;5.53;;;;;;;14.04;100.00;95685.72;10371390;28;20272;-73
2022/09/14 05:54:19;;;;;;;7.57;5.60;;;;;;;14.02;100.00;95677.19;10370805;28;20201;-73
2022/09/14 05:59:20;;;;;;;7.43;5.40;;;;;;;14.15;100.00;95670.28;10370405;28;20787;-73
2022/09/14 06:04:20;;;;;;;10.77;5.07;;;;;;;14.26;100.00;95677.59;10370245;28;20621;-73
2022/09/14 06:09:21;;;;;;;7.95;5.10;;;;;;;14.39;100.00;95676.72;10370416;28;20555;-73
2022/09/14 06:14:21;;;;;;;6.53;5.32;;;;;;;14.28;100.00;95678.19;10369463;28;20619;-74
2022/09/14 06:19:21;;;;;;;9.38;5.25;;;;;;;14.41;100.00;95678.16;10370337;28;20255;-73
2022/09/14 06:24:22;;;;;;;6.60;5.75;;;;;;;14.42;100.00;95678.97;10369434;28;20193;-73
2022/09/14 06:29:22;;;;;;;6.05;5.45;;;;;;;14.44;100.00;95671.66;10370035;28;20185;-73
2022/09/14 06:34:23;;;;;;;7.82;5.32;;;;;;;14.45;100.00;95660.91;10369300;28;20328;-72
2022/09/14 06:39:23;;;;;;;10.55;5.40;;;;;;;14.65;100.00;95670.63;10369159;28;20217;-74
2022/09/14 06:44:24;;;;;;;9.18;6.07;;;;;;;14.73;100.00;95673.03;10369342;28;20280;-73
2022/09/14 06:49:24;;;;;;;10.15;5.10;;;;;;;14.73;100.00;95667.75;10368585;28;20276;-74
2022/09/14 06:54:24;;;;;;;5.53;4.97;;;;;;;14.68;100.00;95661.50;10368476;28;20197;-73
2022/09/14 06:59:25;;;;;;;6.13;5.25;;;;;;;14.84;100.00;95666.31;10367991;28;20236;-73
2022/09/14 07:04:25;;;;;;;5.85;4.93;;;;;;;14.84;100.00;95655.75;10367997;28;20193;-73
2022/09/14 07:09:26;;;;;;;6.22;5.43;;;;;;;14.93;100.00;95659.78;10367931;28;20565;-73
2022/09/14 07:14:26;;;;;;;8.13;4.93;;;;;;;15.16;100.00;95655.81;10367480;28;20549;-73
2022/09/14 07:19:26;;;;;;;5.40;4.80;;;;;;;15.34;100.00;95650.63;10367745;28;20224;-73
2022/09/14 07:24:27;;;;;;;5.93;5.15;;;;;;;15.32;100.00;95652.66;10367418;28;20312;-73
2022/09/14 07:29:27;;;;;;;5.72;4.75;;;;;;;15.43;100.00;95650.38;10368289;28;20188;-73
2022/09/14 07:34:28;;;;;;;10.43;5.15;;;;;;;15.45;100.00;95645.66;10366782;28;20212;-73
2022/09/14 07:39:28;;;;;;;7.70;5.50;;;;;;;15.64;100.00;95643.94;10367451;28;20317;-73
2022/09/14 07:44:28;;;;;;;8.15;5.28;;;;;;;16.03;100.00;95642.00;10366937;28;20212;-73
2022/09/14 07:49:29;;;;;;;11.05;6.00;;;;;;;16.35;100.00;95647.97;10367009;28;20185;-73
2022/09/14 07:54:29;;;;;;;9.95;6.20;;;;;;;16.53;100.00;95647.19;10366792;28;20197;-73
2022/09/14 07:59:30;;;;;;;9.50;6.32;;;;;;;16.74;100.00;95653.88;10367614;28;20247;-73
2022/09/14 08:04:30;;;;;;;8.25;6.18;;;;;;;17.09;100.00;95650.63;10374933;28;20291;-73
2022/09/14 08:09:30;;;;;;;7.38;5.70;;;;;;;17.08;100.00;95635.78;10375004;28;20217;-72
2022/09/14 08:14:31;;;;;;;7.57;6.27;;;;;;;16.76;100.00;95637.78;10374306;28;20204;-72
2022/09/14 08:19:31;;;;;;;9.48;6.35;;;;;;;16.93;100.00;95641.47;10374487;28;20931;-73
2022/09/14 08:24:32;;;;;;;8.02;5.60;;;;;;;16.87;100.00;95646.84;10373840;28;20197;-73
2022/09/14 08:29:32;;;;;;;11.23;6.10;;;;;;;16.78;100.00;95643.66;10371992;28;20280;-74
2022/09/14 08:34:33;;;;;;;7.70;5.93;;;;;;;16.66;100.00;95645.44;10373718;28;20216;-73
2022/09/14 08:39:33;;;;;;;7.03;6.32;;;;;;;16.72;100.00;95640.06;10373829;28;20319;-73
2022/09/14 08:44:42;;;;;;;11.27;6.93;;;;;;;16.45;100.00;95649.31;10372412;28;20197;-73
2022/09/14 08:49:48;;;;;;;15.10;9.18;;;;;;;16.44;100.00;95648.50;10355889;28;20828;-73
2022/09/14 08:54:54;;;;;;;9.45;8.32;;;;;;;16.45;100.00;95654.59;10372931;28;20197;-74
2022/09/14 09:00:10;;;;;;;13.15;8.98;;;;;;;15.96;100.00;95657.91;10372712;28;20237;-73
2022/09/14 09:05:31;;;;;;;12.00;8.95;;;;;;;15.75;100.00;95661.69;10372289;28;20657;-73
2022/09/14 09:10:32;;;;;;;11.32;8.73;;;;;;;15.86;100.00;95668.16;10354153;28;20251;-73
2022/09/14 09:15:44;;;;;;;11.07;8.38;;;;;;;15.74;100.00;95664.56;10352536;28;20204;-73
2022/09/14 09:20:47;;;;;;;11.88;8.45;;;;;;;15.77;100.00;95662.31;10354508;28;20307;-73
2022/09/14 09:26:14;;;;;;;10.27;7.97;;;;;;;16.18;100.00;95663.59;10354524;28;20212;-73
2022/09/14 09:31:16;;;;;;;8.00;7.20;;;;;;;16.33;100.00;95652.69;10337628;28;20197;-73
2022/09/14 09:36:44;;;;;;;8.77;7.82;;;;;;;16.12;100.00;95643.34;10340926;28;20201;-74
2022/09/14 09:41:48;;;;;;;12.63;7.90;;;;;;;16.25;100.00;95637.13;10337259;28;20204;-74
2022/09/14 09:46:57;;;;;;;9.52;8.35;;;;;;;16.61;100.00;95632.06;10353402;28;20208;-74
2022/09/14 09:52:13;;;;;;;9.98;7.68;;;;;;;17.00;100.00;95633.44;10353390;28;20193;-73
2022/09/14 09:57:22;;;;;;;10.65;7.03;;;;;;;17.09;100.00;95607.47;10353195;28;20255;-73
2022/09/14 10:02:26;;;;;;;8.85;6.32;;;;;;;17.46;100.00;95605.50;10369753;28;20233;-73
2022/09/14 10:07:29;;;;;;;6.55;5.35;;;;;;;17.43;100.00;95579.50;10370496;28;20196;-73
2022/09/14 10:12:30;;;;;;;5.65;4.95;;;;;;;17.92;100.00;95589.13;10352788;28;20669;-73
2022/09/14 10:17:30;;;;;;;5.65;4.60;;;;;;;18.10;100.00;95590.84;10352334;28;20315;-73
2022/09/14 10:22:32;;;;;;;4.35;3.67;;;;;;;17.62;100.00;95590.00;10369120;28;20193;-73
2022/09/14 10:27:51;;;;;;;3.80;3.45;;;;;;;16.98;100.00;95589.72;10380469;28;20490;-73
2022/09/14 10:33:05;;;;;;;7.07;3.95;;;;;;;16.92;100.00;95594.88;10368359;28;20197;-73
2022/09/14 10:38:42;;;;;;;4.10;3.55;;;;;;;17.03;100.00;95606.53;10352074;28;20707;-73
2022/09/14 10:43:57;;;;;;;5.13;4.43;;;;;;;17.37;100.00;95620.13;10295329;28;20205;-73
2022/09/14 10:49:17;;;;;;;5.55;4.38;;;;;;;17.63;100.00;95626.84;10351378;28;20201;-73
2022/09/14 10:54:46;;;;;;;5.18;4.68;;;;;;;17.38;100.00;95627.03;10350882;28;20612;-72
2022/09/14 10:59:54;;;;;;;6.28;4.32;;;;;;;17.49;100.00;95622.78;10368507;28;20245;-73
2022/09/14 11:05:07;;;;;;;5.47;4.13;;;;;;;17.40;100.00;95624.16;10368197;28;20185;-73
2022/09/14 11:10:18;;;;;;;6.38;4.85;;;;;;;17.59;100.00;95622.22;10350180;28;20203;-74
2022/09/14 11:15:40;;;;;;;7.63;5.22;;;;;;;17.48;100.00;95606.09;10350459;28;20515;-73
2022/09/14 11:21:06;;;;;;;11.00;9.10;;;;;;;17.34;100.00;95611.81;10349913;28;20229;-73
2022/09/14 11:26:13;;;;;;;12.32;9.93;;;;;;;17.26;100.00;95615.59;10367865;28;20221;-73
2022/09/14 11:31:19;;;;;;;11.60;10.40;;;;;;;17.24;100.00;95629.06;10349995;28;20192;-73
2022/09/14 11:36:36;;;;;;;10.85;9.68;;;;;;;17.04;100.00;95610.78;10366284;28;20715;-73
2022/09/14 11:41:41;;;;;;;12.05;10.82;;;;;;;17.06;100.00;95600.81;10349507;28;20232;-73
2022/09/14 11:46:48;;;;;;;14.98;11.32;;;;;;;16.99;100.00;95610.66;10349671;28;20677;-74
2022/09/14 11:52:12;;;;;;;13.15;11.75;;;;;;;16.80;100.00;95625.75;10349718;28;20268;-73
2022/09/14 11:57:17;;;;;;;15.27;11.60;;;;;;;16.72;100.00;95633.97;10349942;28;20559;-74
2022/09/14 12:02:26;;;;;;;13.18;11.73;;;;;;;16.59;100.00;95629.66;10349189;28;20323;-73
2022/09/14 12:07:41;;;;;;;15.35;12.55;;;;;;;16.65;100.00;95627.97;10366945;28;20198;-73
2022/09/14 12:12:49;;;;;;;18.95;14.18;;;;;;;16.58;100.00;95631.50;10366461;28;20209;-73
2022/09/14 12:17:59;;;;;;;18.63;14.57;;;;;;;16.55;100.00;95639.03;10349537;28;20694;-73
2022/09/14 12:23:19;;;;;;;21.90;17.48;;;;;;;16.77;100.00;95637.56;10366283;28;20654;-74
2022/09/14 12:28:35;;;;;;;19.92;17.40;;;;;;;16.63;100.00;95635.28;10366694;28;20193;-73
2022/09/14 12:33:35;;;;;;;18.85;15.68;;;;;;;16.69;100.00;95635.22;10365815;28;20288;-73
2022/09/14 12:38:35;;;;;;;24.58;18.25;;;;;;;16.63;100.00;95625.53;10362916;28;20286;-73
2022/09/14 12:43:36;;;;;;;20.08;17.92;;;;;;;16.72;100.00;95624.22;10365727;28;20209;-73
2022/09/14 12:48:46;;;;;;;20.77;18.38;;;;;;;17.01;100.00;95616.53;10371992;28;20283;-73
2022/09/14 12:53:49;;;;;;;18.60;16.65;;;;;;;17.04;100.00;95596.75;10373215;28;20654;-73
2022/09/14 12:59:11;;;;;;;19.98;14.52;;;;;;;17.09;100.00;95581.84;10373008;28;20236;-73
2022/09/14 13:04:41;;;;;;;11.30;10.02;;;;;;;17.27;100.00;95562.44;10355260;28;20654;-73
2022/09/14 13:09:45;;;;;;;11.90;9.98;;;;;;;17.33;100.00;95534.22;10356062;28;20620;-73
2022/09/14 13:14:52;;;;;;;10.30;9.27;;;;;;;17.13;100.00;95529.25;10354945;28;20205;-73
2022/09/14 13:19:54;;;;;;;12.48;11.18;;;;;;;17.24;100.00;95531.13;10354858;28;20217;-73
2022/09/14 13:24:57;;;;;;;10.75;9.68;;;;;;;17.50;100.00;95541.50;10372445;28;20681;-73
2022/09/14 13:30:19;;;;;;;11.38;9.75;;;;;;;17.53;100.00;95533.09;10354858;28;20220;-73
2022/09/14 13:35:25;;;;;;;14.57;12.50;;;;;;;17.07;100.00;95536.25;10354308;28;20244;-74
2022/09/14 13:40:28;;;;;;;15.45;13.95;;;;;;;17.14;100.00;95530.88;10371275;28;20233;-74
2022/09/14 13:45:28;;;;;;;14.77;13.38;;;;;;;17.29;100.00;95525.16;10352566;28;20196;-74
2022/09/14 13:50:29;;;;;;;9.48;8.50;;;;;;;17.65;100.00;95518.03;10353418;28;20665;-73
2022/09/14 13:55:32;;;;;;;9.00;6.60;;;;;;;17.76;100.00;95506.59;10353727;28;20691;-73
2022/09/14 14:00:54;;;;;;;8.57;7.50;;;;;;;17.73;100.00;95483.22;10362350;28;20693;-73
2022/09/14 14:05:54;;;;;;;6.85;6.25;;;;;;;17.05;100.00;95488.06;10370191;28;20192;-73
2022/09/14 14:10:55;;;;;;;9.05;7.72;;;;;;;17.32;100.00;95492.94;10352701;28;20661;-73
2022/09/14 14:16:12;;;;;;;6.47;5.65;;;;;;;17.41;100.00;95499.50;10352891;28;20193;-74
2022/09/14 14:21:20;;;;;;;5.60;4.97;;;;;;;17.54;100.00;95495.00;10369644;28;20217;-74
2022/09/14 14:26:25;;;;;;;5.88;5.38;;;;;;;17.45;100.00;95490.03;10370246;28;20193;-74
2022/09/14 14:31:25;;;;;;;6.60;6.00;;;;;;;17.38;100.00;95499.97;10352155;28;20657;-74
2022/09/14 14:36:26;;;;;;;6.95;6.30;;;;;;;17.50;100.00;95507.09;10368829;28;20303;-74
2022/09/14 14:41:26;;;;;;;7.97;7.20;;;;;;;17.65;100.00;95505.59;10369433;28;20275;-74
2022/09/14 14:46:27;;;;;;;8.48;7.68;;;;;;;17.72;100.00;95500.19;10342347;28;20198;-74
2022/09/14 14:51:28;;;;;;;9.60;7.90;;;;;;;17.67;100.00;95492.09;10328226;28;20194;-74
2022/09/14 14:56:29;;;;;;;8.15;7.35;;;;;;;17.56;100.00;95490.28;10328172;28;20198;-73
2022/09/14 15:01:29;;;;;;;9.98;7.60;;;;;;;17.34;100.00;95492.69;10327626;28;20384;-74
2022/09/14 15:06:36;;;;;;;7.97;7.07;;;;;;;17.40;100.00;95508.47;10325100;28;20305;-74
2022/09/14 15:11:42;;;;;;;7.70;6.43;;;;;;;17.56;100.00;95484.97;10327535;28;20194;-74
2022/09/14 15:16:43;;;;;;;35.70;31.88;;;;;;;17.56;100.00;95480.47;10327589;28;20198;-74
2022/09/14 15:21:43;;;;;;;16.52;13.90;;;;;;;17.47;100.00;95476.56;10327176;28;20583;-74
2022/09/14 15:26:52;;;;;;;15.50;13.40;;;;;;;17.34;100.00;95485.56;10327470;28;20607;-74
2022/09/14 15:32:01;;;;;;;26.88;22.63;;;;;;;17.17;100.00;95484.63;10309838;28;20193;-74
2022/09/14 15:37:01;;;;;;;19.02;15.35;;;;;;;17.05;100.00;95495.97;10346736;28;20217;-74
2022/09/14 15:42:02;;;;;;;11.93;10.20;;;;;;;16.82;100.00;95494.06;10367410;28;20657;-73
2022/09/14 15:47:02;;;;;;;23.10;18.38;;;;;;;16.62;100.00;95501.47;10366762;28;20201;-73
2022/09/14 15:52:03;;;;;;;7.15;6.45;;;;;;;16.53;100.00;95515.00;10367055;28;20551;-74
2022/09/14 15:57:05;;;;;;;5.25;4.75;;;;;;;16.53;100.00;95520.28;10366862;28;20415;-73
2022/09/14 16:02:06;;;;;;;3.95;3.63;;;;;;;16.30;100.00;95525.47;10366644;28;20233;-74
2022/09/14 16:07:10;;;;;;;4.65;2.38;;;;;;;16.41;100.00;95519.44;10366642;28;20593;-74
2022/09/14 16:12:11;;;;;;;4.85;3.30;;;;;;;16.24;100.00;95527.16;10366746;28;20193;-73
2022/09/14 16:17:12;;;;;;;3.35;3.15;;;;;;;16.17;100.00;95521.13;10367117;28;20204;-74
2022/09/14 16:22:12;;;;;;;3.85;3.53;;;;;;;15.98;100.00;95521.13;10370121;28;20604;-74
2022/09/14 16:27:12;;;;;;;8.65;6.82;;;;;;;15.95;100.00;95520.78;10374570;28;20233;-74
2022/09/14 16:32:13;;;;;;;15.15;11.10;;;;;;;15.96;100.00;95515.28;10373167;28;20743;-74
2022/09/14 16:37:13;;;;;;;30.55;21.20;;;;;;;15.89;100.00;95527.75;10373710;28;20694;-74
2022/09/14 16:42:14;;;;;;;34.03;23.30;;;;;;;15.79;100.00;95536.19;10373313;28;20201;-74
2022/09/14 16:47:14;;;;;;;38.50;25.88;;;;;;;15.76;100.00;95535.75;10373744;28;20274;-74
2022/09/14 16:52:14;;;;;;;39.72;26.27;;;;;;;15.75;100.00;95550.00;10373342;28;20193;-74
2022/09/14 16:57:15;;;;;;;49.25;31.17;;;;;;;15.73;100.00;95541.47;10373043;28;20228;-74
2022/09/14 17:02:16;;;;;;;45.65;30.73;;;;;;;15.72;100.00;95553.06;10372541;28;20243;-74
2022/09/14 17:07:16;;;;;;;46.65;28.00;;;;;;;15.68;100.00;95558.78;10373047;28;20189;-75
2022/09/14 17:12:17;;;;;;;40.17;29.83;;;;;;;15.78;100.00;95544.31;10372547;28;20201;-74
2022/09/14 17:17:17;;;;;;;33.70;26.00;;;;;;;15.93;100.00;95536.06;10373366;28;20219;-75
2022/09/14 17:22:17;;;;;;;43.72;26.42;;;;;;;15.72;100.00;95514.28;10371946;28;20684;-75
2022/09/14 17:27:18;;;;;;;34.42;24.98;;;;;;;15.72;100.00;95516.91;10372316;28;20569;-74
2022/09/14 17:32:19;;;;;;;36.08;24.25;;;;;;;15.66;100.00;95515.94;10370441;28;20244;-74
2022/09/14 17:37:19;;;;;;;34.88;23.23;;;;;;;15.58;100.00;95516.22;10371223;28;20248;-74
2022/09/14 17:42:20;;;;;;;36.45;22.70;;;;;;;15.56;100.00;95513.00;10371037;28;20562;-75
2022/09/14 17:47:20;;;;;;;40.20;25.52;;;;;;;15.53;100.00;95494.97;10371591;28;20540;-75
2022/09/14 17:52:20;;;;;;;42.47;25.02;;;;;;;15.56;100.00;95510.38;10370903;28;20334;-75
2022/09/14 17:57:21;;;;;;;34.15;22.95;;;;;;;15.54;100.00;95501.84;10370834;28;20225;-74
2022/09/14 18:02:21;;;;;;;35.13;22.20;;;;;;;15.51;100.00;95516.31;10369986;28;20237;-75
2022/09/14 18:07:21;;;;;;;30.90;20.23;;;;;;;15.55;100.00;95521.16;10370521;28;20197;-75
2022/09/14 18:12:22;;;;;;;28.63;20.35;;;;;;;15.54;100.00;95519.53;10369832;28;20192;-74
2022/09/14 18:17:22;;;;;;;27.20;20.95;;;;;;;15.56;100.00;95520.94;10369913;28;20267;-74
2022/09/14 18:22:24;;;;;;;24.55;19.50;;;;;;;15.70;100.00;95506.56;10369578;28;20193;-74
2022/09/14 18:27:24;;;;;;;34.97;23.42;;;;;;;15.47;100.00;95496.63;10369390;28;20559;-74
2022/09/14 18:32:25;;;;;;;36.30;24.50;;;;;;;15.46;100.00;95489.72;10368800;28;20207;-75
2022/09/14 18:37:26;;;;;;;51.95;30.52;;;;;;;15.38;100.00;95510.34;10365779;28;20693;-75
2022/09/14 18:42:26;;;;;;;38.72;25.90;;;;;;;15.56;100.00;95499.81;10368411;28;20185;-75
2022/09/14 18:47:27;;;;;;;36.53;24.17;;;;;;;15.39;100.00;95502.22;10368741;28;20284;-74
2022/09/14 18:52:27;;;;;;;33.67;21.45;;;;;;;15.34;100.00;95513.41;10368272;28;20284;-75
2022/09/14 18:57:28;;;;;;;34.35;20.60;;;;;;;15.31;100.00;95516.47;10368476;28;20212;-75
2022/09/14 19:02:28;;;;;;;38.08;21.77;;;;;;;15.31;100.00;95519.13;10368120;28;20224;-75
2022/09/14 19:07:28;;;;;;;39.67;23.50;;;;;;;15.34;100.00;95517.84;10368504;28;20268;-75
2022/09/14 19:12:29;;;;;;;33.08;22.25;;;;;;;15.34;100.00;95529.25;10367766;28;20685;-74
2022/09/14 19:17:30;;;;;;;45.85;23.17;;;;;;;15.31;100.00;95529.69;10367989;28;20217;-74
2022/09/14 19:22:30;;;;;;;38.30;23.55;;;;;;;15.31;100.00;95532.31;10367742;28;20189;-74
2022/09/14 19:27:30;;;;;;;36.55;21.52;;;;;;;15.30;100.00;95527.25;10367202;28;20561;-75
2022/09/14 19:32:32;;;;;;;24.48;16.83;;;;;;;15.27;100.00;95517.94;10367447;28;20194;-75
2022/09/14 19:37:32;;;;;;;15.35;11.57;;;;;;;15.20;100.00;95509.25;10366999;28;20308;-75
2022/09/14 19:42:32;;;;;;;12.50;10.88;;;;;;;15.31;100.00;95513.00;10349729;28;20200;-75
2022/09/14 19:47:33;;;;;;;4.82;4.32;;;;;;;15.19;100.00;95517.38;10367043;28;20252;-75
2022/09/14 19:52:34;;;;;;;7.50;5.28;;;;;;;15.15;100.00;95490.63;10366737;28;20637;-74
2022/09/14 19:57:36;;;;;;;7.38;4.53;;;;;;;15.01;100.00;95468.81;10371409;28;20336;-74
2022/09/14 20:02:36;;;;;;;5.70;4.53;;;;;;;14.97;100.00;95478.19;10374529;28;20232;-75
2022/09/14 20:07:37;;;;;;;6.60;4.10;;;;;;;15.00;100.00;95490.13;10375380;28;20185;-74
2022/09/14 20:12:37;;;;;;;5.32;4.43;;;;;;;15.01;100.00;95476.75;10374052;28;20192;-74
2022/09/14 20:17:37;;;;;;;7.82;4.05;;;;;;;14.90;100.00;95475.59;10375033;28;20308;-74
2022/09/14 20:22:39;;;;;;;4.20;3.03;;;;;;;14.69;100.00;95473.31;10374067;28;20705;-75
2022/09/14 20:27:39;;;;;;;1.70;1.58;;;;;;;14.56;100.00;95456.53;10374240;28;20227;-74
2022/09/14 20:32:40;;;;;;;6.25;2.35;;;;;;;14.55;100.00;95489.19;10373794;28;20628;-75
2022/09/14 20:37:42;;;;;;;9.30;0.95;;;;;;;14.42;100.00;95490.03;10373458;28;20606;-75
2022/09/14 20:42:42;;;;;;;5.10;1.02;;;;;;;14.44;100.00;95511.75;10373912;28;20193;-75
2022/09/14 20:47:43;;;;;;;1.02;0.70;;;;;;;14.37;100.00;95492.50;10373201;28;20665;-74
2022/09/14 20:52:43;;;;;;;1.05;0.70;;;;;;;14.35;100.00;95470.84;10373351;28;20711;-74
2022/09/14 20:57:43;;;;;;;2.33;0.80;;;;;;;14.40;100.00;95484.19;10373476;28;20279;-74
2022/09/14 21:02:49;;;;;;;2.88;2.13;;;;;;;14.39;100.00;95495.72;10314752;28;20229;-74
2022/09/14 21:07:51;;;;;;;1.08;0.60;;;;;;;14.46;100.00;95490.44;10332512;28;20190;-75
2022/09/14 21:12:52;;;;;;;3.35;0.60;;;;;;;14.46;100.00;95495.72;10331774;28;20206;-74
2022/09/14 21:17:52;;;;;;;2.10;0.70;;;;;;;14.39;100.00;95510.75;10332663;28;20248;-74
2022/09/14 21:22:52;;;;;;;0.65;0.57;;;;;;;14.41;100.00;95498.16;10331808;28;20284;-74
2022/09/14 21:27:53;;;;;;;0.68;0.68;;;;;;;14.31;100.00;95485.44;10331964;28;20268;-74
2022/09/14 21:32:53;;;;;;;2.03;1.70;;;;;;;14.25;100.00;95497.63;10331342;28;20195;-74
2022/09/14 21:37:54;;;;;;;1.70;1.60;;;;;;;14.16;100.00;95508.63;10331057;28;20225;-75
2022/09/14 21:42:54;;;;;;;2.92;2.70;;;;;;;14.02;100.00;95526.28;10331404;28;20209;-75
2022/09/14 21:47:54;;;;;;;2.22;2.03;;;;;;;13.97;100.00;95505.84;10330951;28;20213;-74
2022/09/14 21:52:55;;;;;;;1.50;1.38;;;;;;;14.03;100.00;95533.97;10330665;28;20190;-74
2022/09/14 21:57:55;;;;;;;0.80;0.80;;;;;;;13.91;100.00;95538.28;10331970;28;20325;-74
2022/09/14 22:02:56;;;;;;;0.60;0.60;;;;;;;13.79;100.00;95514.41;10370467;28;20204;-74
2022/09/14 22:07:56;;;;;;;0.70;0.70;;;;;;;13.77;100.00;95512.97;10370830;28;20181;-74
2022/09/14 22:12:56;;;;;;;0.95;0.93;;;;;;;13.76;100.00;95514.81;10370113;28;20251;-74
2022/09/14 22:17:57;;;;;;;0.80;0.80;;;;;;;13.70;100.00;95507.72;10352041;28;20332;-73
2022/09/14 22:22:57;;;;;;;0.80;0.80;;;;;;;13.65;100.00;95523.34;10369885;28;20197;-74
2022/09/14 22:27:58;;;;;;;1.50;1.40;;;;;;;13.56;100.00;95525.38;10370068;28;20208;-74
2022/09/14 22:32:58;;;;;;;2.67;2.47;;;;;;;13.33;100.00;95523.13;10368902;28;20193;-74
2022/09/14 22:38:00;;;;;;;6.43;4.05;;;;;;;13.15;100.00;95531.63;10369377;28;20698;-74
2022/09/14 22:43:00;;;;;;;4.53;4.10;;;;;;;13.07;100.00;95543.16;10369384;28;20201;-74
2022/09/14 22:48:01;;;;;;;4.38;3.95;;;;;;;13.02;100.00;95583.19;10369570;28;20557;-74
2022/09/14 22:53:01;;;;;;;2.78;2.58;;;;;;;12.97;100.00;95569.00;10351193;28;20212;-74
2022/09/14 22:58:01;;;;;;;5.45;2.55;;;;;;;12.93;100.00;95570.44;10368656;28;20220;-74
2022/09/14 23:03:02;;;;;;;1.70;1.60;;;;;;;12.82;100.00;95579.72;10368303;28;20685;-74
2022/09/14 23:08:04;;;;;;;1.65;1.38;;;;;;;12.75;100.00;95574.44;10351173;28;20193;-73